Terminal Aerodrome Forecast
Issued by NWS

Home | Current Version | Previous Version | Text Only | Print | Product List | Glossary On
Versions: 1 2 3 4 5 6 7 8 9 10 11 12 13 14 15 16 17 18 19 20 21 22 23 24 25
000
FTUS41 KALY 232300 RRA
TAFPSF
TAF
KPSF 232349Z 2400/2424 00000KT P6SM SCT050 BKN250
     FM240300 VRB03KT P6SM SCT030 OVC050
     FM240600 14004KT P6SM VCSH SCT015 OVC030 WS020/16045KT
     FM240800 13005KT 4SM -RA BR SCT006 OVC015 WS020/17050KT
     FM241000 14005KT 2SM -RA BR SCT003 OVC006 WS020/17050KT
     FM241700 17010G18KT 5SM BR VCSH SCT006 OVC010=

USA.gov is the U.S. government's official web portal to all federal, state and local government web resources and services.